Tropical Cyclones
[Index]
Main Index Home Page Stock Weather Photos Extreme Storms Discussion Storm News and Storm Chasing Reports Tropical Cyclones / Hurricanes / Typhoons Weather Data and Links Wild Fires / Bushfires Weather Observation Techniques Weather Picture Catalogue Tornado Pictures and Reports Stock Video Footage and DVDs for sale
Season 1962-1963 Tropical Cyclone 196263_11 Track Map
Season 1962-1963 Summaries: [BoM-AU] [JTWC-AU] [JTWC-SIO] [JTWC-SPAC] [JTWC-SH]
<<- Previous TC | BoM 1962-1963 Season | Next TC ->>

click for intensity scale information  Lat/long Grid: Show Hide

 Date Labels: Show Hide

Bureau of Meteorology Tropical Cyclone Data

Name: 196263_11
Number: 355 / 196263_11

19 Jan 1963 01:00 UTC to 30 Jan 1963 01:00 UTC

    date/time    lat    long    hPa   cat  kts
1963-01-19 01   13.0   124.0   1001                     
1963-01-20 01   13.3   123.3   1001                     
1963-01-21 01   14.6   122.7   1000                     
1963-01-22 01   15.5   121.4   1000                     
1963-01-23 01   16.5   120.0    998                     
1963-01-23 22   17.9   119.2    998                     
1963-01-24 01   18.0   119.0    998                     
1963-01-24 04   18.1   118.5    997                     
1963-01-24 07   18.3   118.0    997                     
1963-01-24 10   18.4   117.5    997                     
1963-01-24 16   18.7   116.5    996                     
1963-01-24 19   18.8   116.0    996                     
1963-01-24 22   18.9   115.5    995    1                
1963-01-25 01   19.0   115.0    995    1                
1963-01-25 04   19.3   114.6    995    1                
1963-01-25 07   19.6   114.2    994    1                
1963-01-25 10   20.0   113.8    994    1                
1963-01-25 16   20.8   113.0    994    1                
1963-01-25 19   21.2   112.6    993    1                
1963-01-25 22   21.6   112.3    993    1                
1963-01-26 01   22.0   112.0    993    1                
1963-01-26 04   22.1   111.9    992    1                
1963-01-26 07   22.3   111.8    992    1                
1963-01-26 10   22.4   111.7    992    1                
1963-01-26 13   22.6   111.7    987    1                
1963-01-26 16   22.7   111.4    991    1                
1963-01-26 19   22.8   111.3    991    1                
1963-01-26 22   22.9   111.1    991    1                
1963-01-27 01   23.0   111.0    990    1                
1963-01-27 04   23.2   111.1    991    1                
1963-01-27 07   23.5   111.3    992    1                
1963-01-27 10   23.7   111.4    993    1                
1963-01-27 16   24.2   111.7    994    1                
1963-01-27 19   24.5   111.8    995    1                
1963-01-27 22   24.8   111.9    996                     
1963-01-28 01   25.0   112.0    997                     
1963-01-28 07   26.0   112.0    997                     
1963-01-28 10   26.5   112.0    997                     
1963-01-28 19   28.0   112.0    997                     
1963-01-28 22   28.5   112.0    997                     
1963-01-29 04   29.0   112.0    997                     
1963-01-29 07   29.0   112.0    998                     
1963-01-29 10   29.0   112.0    999                     
1963-01-29 16   29.0   112.0   1000                     
1963-01-29 19   29.0   112.0   1001                     
1963-01-29 22   29.0   112.0   1002                     
1963-01-30 01   29.0   112.0   1003                     
Winds are 10-min average.

Tropical cyclone tracks developed by Michael Bath using data from the Bureau of Meteorology and Google Maps.


[Australian Severe Weather index] [Copyright Notice] [Email Contacts] [Search This Site] [Privacy Policy]
Document: tropical_cyclone_196263_11.htm Updated: 30 May 2013